CYOA

Ekati Airport

Ekati, Northwest Territories, Canada
METAR CYOA 201300Z 14020KT 1 1/2SM -SN BLSN OVC003 M07/M08 A2957
Observed Flight Rules
Oct-20 @ 13:00 UTC (27 minutes ago) Instrument Flight Rules
Wind Visibility Clouds Conditions
140° at 20 knots 1 1/2 miles
  • Overcast at 300' AGL
  • Light Snow
  • Blowing
  • Snow
Temperatures Readings
Current -7°C / 19°F
Dewpoint -8°C / 18°F
Humidity 93%
Altimeter 29.57" Hg
Pressure 1001 hPa
Elevation 469
METAR CYOA 201300Z 14020KT 1 1/2SM -SN BLSN OVC003 M07/M08 A2957
Observed Flight Rules
Oct-20 @ 13:00 UTC
(27 minutes ago)
LIFR
Wind Visibility
140° at 20 knots 1 1/2 miles
Clouds
  • Overcast at 300' AGL
Conditions
  • Light Snow
  • Blowing
  • Snow
Temperature Dewpoint
-7°C / 19°F -8°C / 18°F
Humidity Altimeter Pressure
93% 29.57" Hg 1001 hPa